createdAt,value
2019-03-25T00:02:05.276Z,64.15
2019-03-25T00:04:33.857Z,64.48
2019-03-25T00:07:02.516Z,64.15
2019-03-25T00:09:31.096Z,64.44
2019-03-25T00:11:59.732Z,64.54
2019-03-25T00:14:28.328Z,64.61
2019-03-25T00:16:56.948Z,64.58
2019-03-25T00:19:25.833Z,64.29
2019-03-25T00:21:54.438Z,63.92
2019-03-25T00:24:23.008Z,63.79
2019-03-25T00:26:51.603Z,64.19
2019-03-25T00:29:20.130Z,64.33
2019-03-25T00:31:48.728Z,64.24
2019-03-25T00:34:17.231Z,64.39
2019-03-25T00:36:46.035Z,64.54
2019-03-25T00:39:14.573Z,64.90
2019-03-25T00:41:43.155Z,64.28
2019-03-25T00:44:11.709Z,64.41
2019-03-25T00:46:40.293Z,64.22
2019-03-25T00:49:08.841Z,64.28
2019-03-25T00:51:37.434Z,64.42
2019-03-25T00:54:05.973Z,64.53
2019-03-25T00:56:34.561Z,64.77
2019-03-25T00:59:03.131Z,64.84
2019-03-25T01:01:31.680Z,64.64
2019-03-25T01:04:00.295Z,64.45
2019-03-25T01:06:28.859Z,64.02
2019-03-25T01:08:57.466Z,63.91
2019-03-25T01:11:26.005Z,64.21
2019-03-25T01:13:54.621Z,64.00
2019-03-25T01:16:23.177Z,63.42
2019-03-25T01:18:51.760Z,63.46
2019-03-25T01:21:20.323Z,62.95
2019-03-25T01:23:48.943Z,62.94
2019-03-25T01:26:17.511Z,62.89
2019-03-25T01:28:46.106Z,63.01
2019-03-25T01:31:14.642Z,62.84
2019-03-25T01:33:43.235Z,63.16
2019-03-25T01:36:11.784Z,63.40
2019-03-25T01:38:40.394Z,63.46
2019-03-25T01:41:08.962Z,63.44
2019-03-25T01:43:37.534Z,63.61
2019-03-25T01:46:06.122Z,63.85
2019-03-25T01:48:34.694Z,64.39
2019-03-25T01:51:03.250Z,64.62
2019-03-25T01:53:31.855Z,64.96
2019-03-25T01:56:00.504Z,65.08
2019-03-25T01:58:29.075Z,65.47
2019-03-25T02:00:57.670Z,65.75
2019-03-25T02:03:26.232Z,66.04
2019-03-25T02:05:54.858Z,65.72
2019-03-25T02:08:23.393Z,65.98
2019-03-25T02:10:51.966Z,66.23
2019-03-25T02:13:20.505Z,66.45
2019-03-25T02:15:49.100Z,66.39
2019-03-25T02:18:17.636Z,66.20
2019-03-25T02:20:46.237Z,66.43
2019-03-25T02:23:14.930Z,66.96
2019-03-25T02:25:43.501Z,66.54
2019-03-25T02:28:12.047Z,66.96
2019-03-25T02:30:40.613Z,67.48
2019-03-25T02:33:09.158Z,67.82
2019-03-25T02:35:37.735Z,67.58
2019-03-25T02:38:06.303Z,67.01
2019-03-25T02:40:34.923Z,67.21
2019-03-25T02:43:03.507Z,67.28
2019-03-25T02:45:32.047Z,66.71
2019-03-25T02:48:01.803Z,67.13
2019-03-25T02:50:30.421Z,67.35
2019-03-25T02:52:59.005Z,67.84
2019-03-25T02:55:40.614Z,67.65
2019-03-25T02:57:58.061Z,67.60
2019-03-25T03:00:38.382Z,67.78
2019-03-25T03:03:07.416Z,67.70
2019-03-25T03:05:36.438Z,67.72
2019-03-25T03:08:05.430Z,68.09
2019-03-25T03:10:34.572Z,67.87
2019-03-25T03:13:03.472Z,67.04
2019-03-25T03:15:32.046Z,66.27
2019-03-25T03:18:00.608Z,66.34
2019-03-25T03:20:29.178Z,66.22
2019-03-25T03:22:57.743Z,65.26
2019-03-25T03:25:26.761Z,65.57
2019-03-25T03:27:55.400Z,66.34
2019-03-25T03:30:24.000Z,66.17
2019-03-25T03:32:52.537Z,66.32
2019-03-25T03:35:21.123Z,65.96
2019-03-25T03:37:49.795Z,64.80
2019-03-25T03:40:18.400Z,63.78
2019-03-25T03:42:47.086Z,63.66
2019-03-25T03:45:16.062Z,63.99
2019-03-25T03:47:44.634Z,64.73
2019-03-25T03:50:23.714Z,65.01
2019-03-25T03:52:52.239Z,65.19
2019-03-25T03:55:20.830Z,65.53
2019-03-25T03:57:49.751Z,66.27
2019-03-25T04:00:28.417Z,65.99
2019-03-25T04:02:56.987Z,66.01
2019-03-25T04:05:25.546Z,66.23
2019-03-25T04:07:54.109Z,66.20
2019-03-25T04:10:22.688Z,65.61
2019-03-25T04:12:51.223Z,65.58
2019-03-25T04:15:30.058Z,65.45
2019-03-25T04:17:59.292Z,65.17
2019-03-25T04:20:27.913Z,65.71
2019-03-25T04:22:56.569Z,65.50
2019-03-25T04:25:25.530Z,65.53
2019-03-25T04:27:54.376Z,65.19
2019-03-25T04:30:22.945Z,65.52
2019-03-25T04:32:51.507Z,65.64
2019-03-25T04:35:20.105Z,65.75
2019-03-25T04:37:48.757Z,65.42
2019-03-25T04:40:17.374Z,65.51
2019-03-25T04:42:45.993Z,65.18
2019-03-25T04:45:14.803Z,65.49
2019-03-25T04:47:43.388Z,65.56
2019-03-25T04:50:12.009Z,65.33
2019-03-25T04:52:40.601Z,65.23
2019-03-25T04:55:09.159Z,65.58
2019-03-25T04:57:37.763Z,65.46
2019-03-25T05:00:07.804Z,65.73
2019-03-25T05:02:39.030Z,65.38
2019-03-25T05:05:08.072Z,66.00
2019-03-25T05:07:36.769Z,65.44
2019-03-25T05:10:05.819Z,64.94
2019-03-25T05:12:35.759Z,65.81
2019-03-25T05:15:05.625Z,64.69
2019-03-25T05:17:34.315Z,64.50
2019-03-25T05:20:03.345Z,64.30
2019-03-25T05:22:31.910Z,64.24
2019-03-25T05:25:00.512Z,64.58
2019-03-25T05:27:29.148Z,63.76
2019-03-25T05:29:57.734Z,63.57
2019-03-25T05:32:26.320Z,63.88
2019-03-25T05:34:54.882Z,63.89
2019-03-25T05:37:23.444Z,63.50
2019-03-25T05:39:51.992Z,62.76
2019-03-25T05:42:20.574Z,62.36
2019-03-25T05:44:49.138Z,62.74
2019-03-25T05:47:17.770Z,62.71
2019-03-25T05:49:46.328Z,62.40
2019-03-25T05:52:14.923Z,62.79
2019-03-25T05:54:43.510Z,61.74
2019-03-25T05:57:12.087Z,62.02
2019-03-25T05:59:40.655Z,61.59
2019-03-25T06:02:09.227Z,61.25
2019-03-25T06:04:37.814Z,62.61
2019-03-25T06:07:06.405Z,63.39
2019-03-25T06:09:34.978Z,64.31
2019-03-25T06:12:03.563Z,63.87
2019-03-25T06:14:32.145Z,64.86
2019-03-25T06:17:00.709Z,64.79
2019-03-25T06:19:29.263Z,64.98
2019-03-25T06:21:57.830Z,65.35
2019-03-25T06:24:26.417Z,64.86
2019-03-25T06:26:54.981Z,64.34
2019-03-25T06:29:23.553Z,63.88
2019-03-25T06:31:52.141Z,63.87
2019-03-25T06:34:20.729Z,63.87
2019-03-25T06:36:49.291Z,63.84
2019-03-25T06:39:17.862Z,64.04
2019-03-25T06:41:46.420Z,63.89
2019-03-25T06:44:15.078Z,64.46
2019-03-25T06:46:43.673Z,63.79
2019-03-25T06:49:12.275Z,64.25
2019-03-25T06:51:40.847Z,64.40
2019-03-25T06:54:09.610Z,64.24
2019-03-25T06:56:38.156Z,64.30
2019-03-25T06:59:06.757Z,64.18
2019-03-25T07:01:35.396Z,64.63
2019-03-25T07:04:04.011Z,65.47
2019-03-25T07:06:32.583Z,65.78
2019-03-25T07:09:01.166Z,65.96
2019-03-25T07:11:29.729Z,66.31
2019-03-25T07:13:58.654Z,65.03
2019-03-25T07:16:27.278Z,66.19
2019-03-25T07:18:55.891Z,65.79
2019-03-25T07:21:24.492Z,66.23
2019-03-25T07:23:53.062Z,66.24
2019-03-25T07:26:21.672Z,66.11
2019-03-25T07:28:50.230Z,66.85
2019-03-25T07:31:18.839Z,66.77
2019-03-25T07:33:47.372Z,67.26
2019-03-25T07:36:15.934Z,67.51
2019-03-25T07:38:44.532Z,67.17
2019-03-25T07:41:13.114Z,67.01
2019-03-25T07:43:41.697Z,66.71
2019-03-25T07:46:10.295Z,66.84
2019-03-25T07:48:38.896Z,67.31
2019-03-25T07:51:07.455Z,67.95
2019-03-25T07:53:36.030Z,67.17
2019-03-25T07:56:04.628Z,66.97
2019-03-25T07:58:33.150Z,66.43
2019-03-25T08:01:01.931Z,67.13
2019-03-25T08:03:30.491Z,66.66
2019-03-25T08:05:59.049Z,65.78
2019-03-25T08:08:27.634Z,65.24
2019-03-25T08:10:56.207Z,64.00
2019-03-25T08:13:24.932Z,62.19
2019-03-25T08:15:53.534Z,60.22
2019-03-25T08:18:22.175Z,59.89
2019-03-25T08:20:50.751Z,58.25
2019-03-25T08:23:19.323Z,56.99
2019-03-25T08:25:47.908Z,55.68
2019-03-25T08:28:16.455Z,55.10
2019-03-25T08:30:45.026Z,55.39
2019-03-25T08:33:13.586Z,56.21
2019-03-25T08:35:42.396Z,56.00
2019-03-25T08:38:10.927Z,55.53
2019-03-25T08:40:39.501Z,54.50
2019-03-25T08:43:08.071Z,52.72
2019-03-25T08:45:36.683Z,51.56
2019-03-25T08:48:05.250Z,50.83
2019-03-25T08:50:33.835Z,52.06
2019-03-25T08:53:02.475Z,53.59
2019-03-25T08:55:31.066Z,53.18
2019-03-25T08:58:11.198Z,53.30
2019-03-25T09:00:30.202Z,50.21
2019-03-25T09:02:58.747Z,49.86
2019-03-25T09:05:27.319Z,51.09
2019-03-25T09:07:55.911Z,51.04
2019-03-25T09:10:24.744Z,51.43
2019-03-25T09:12:53.303Z,51.95
2019-03-25T09:15:21.851Z,51.10
2019-03-25T09:17:50.433Z,51.19
2019-03-25T09:20:19.012Z,51.06
2019-03-25T09:22:48.404Z,50.86
2019-03-25T09:25:17.273Z,50.01
2019-03-25T09:27:45.807Z,45.58
2019-03-25T09:30:53.218Z,37.88
2019-03-25T09:33:57.814Z,36.54
2019-03-25T09:36:26.854Z,39.77
2019-03-25T09:38:57.177Z,40.22
2019-03-25T09:41:25.734Z,40.81
2019-03-25T09:43:54.295Z,38.53
2019-03-25T09:46:22.847Z,37.71
2019-03-25T09:48:51.418Z,39.58
2019-03-25T09:51:19.884Z,41.79
2019-03-25T09:53:48.505Z,44.63
2019-03-25T09:56:17.192Z,46.52
2019-03-25T09:58:45.778Z,45.76
2019-03-25T10:01:14.326Z,39.18
2019-03-25T10:03:42.906Z,37.84
2019-03-25T10:06:11.515Z,40.36
2019-03-25T10:08:40.088Z,42.23
2019-03-25T10:11:08.654Z,37.83
2019-03-25T10:13:37.234Z,33.19
2019-03-25T10:16:05.816Z,33.35
2019-03-25T10:18:34.426Z,35.49
2019-03-25T10:21:03.033Z,36.84
2019-03-25T10:23:31.660Z,38.63
2019-03-25T10:26:00.252Z,32.06
2019-03-25T10:28:28.862Z,23.61
2019-03-25T10:30:57.390Z,18.95
2019-03-25T10:33:25.976Z,16.25
2019-03-25T10:35:54.528Z,18.63
2019-03-25T10:38:23.101Z,22.40
2019-03-25T10:40:51.689Z,26.86
2019-03-25T10:43:20.268Z,30.51
2019-03-25T10:45:48.870Z,33.91
2019-03-25T10:48:17.473Z,34.84
2019-03-25T10:50:46.096Z,36.23
2019-03-25T10:53:14.793Z,37.46
2019-03-25T10:55:43.832Z,38.42
2019-03-25T10:58:12.765Z,39.37
2019-03-25T11:00:41.541Z,37.82
2019-03-25T11:03:10.143Z,36.26
2019-03-25T11:05:38.709Z,36.96
2019-03-25T11:08:07.237Z,37.40
2019-03-25T11:10:35.845Z,37.24
2019-03-25T11:13:04.519Z,37.08
2019-03-25T11:15:33.119Z,37.64
2019-03-25T11:18:01.797Z,40.12
2019-03-25T11:20:30.377Z,39.81
2019-03-25T11:22:58.908Z,41.65
2019-03-25T11:25:27.481Z,41.94
2019-03-25T11:27:56.080Z,41.75
2019-03-25T11:31:02.256Z,41.78
2019-03-25T11:33:31.140Z,40.75
2019-03-25T11:35:59.782Z,39.87
2019-03-25T11:38:28.341Z,38.32
2019-03-25T11:40:57.004Z,37.68
2019-03-25T11:43:25.551Z,38.23
2019-03-25T11:45:54.217Z,39.22
2019-03-25T11:48:22.787Z,40.04
2019-03-25T11:50:51.373Z,40.81
2019-03-25T11:53:20.062Z,41.17
2019-03-25T11:55:48.673Z,41.37
2019-03-25T11:58:17.257Z,42.57
2019-03-25T12:00:45.811Z,42.64
2019-03-25T12:03:15.427Z,44.01
2019-03-25T12:05:43.990Z,47.23
2019-03-25T12:08:12.542Z,49.98
2019-03-25T12:10:41.124Z,51.01
2019-03-25T12:13:09.703Z,51.56
2019-03-25T12:15:38.354Z,52.10
2019-03-25T12:18:07.279Z,50.80
2019-03-25T12:20:36.093Z,49.42
2019-03-25T12:23:04.679Z,48.11
2019-03-25T12:25:33.307Z,48.42
2019-03-25T12:28:01.897Z,50.22
2019-03-25T12:30:30.477Z,53.00
2019-03-25T12:33:04.039Z,53.53
2019-03-25T12:35:29.491Z,52.56
2019-03-25T12:37:58.355Z,53.18
2019-03-25T12:40:26.965Z,53.71
2019-03-25T12:42:55.691Z,54.43
2019-03-25T12:45:24.243Z,52.91
2019-03-25T12:47:52.885Z,56.34
2019-03-25T12:50:21.487Z,59.19
2019-03-25T12:52:50.061Z,60.77
2019-03-25T12:55:18.631Z,64.11
2019-03-25T12:57:47.254Z,68.83
2019-03-25T13:00:38.351Z,69.39
2019-03-25T13:03:09.939Z,69.67
2019-03-25T13:05:38.917Z,72.29
2019-03-25T13:08:07.486Z,73.12
2019-03-25T13:10:36.043Z,73.70
2019-03-25T13:13:04.965Z,72.98
2019-03-25T13:15:33.708Z,71.72
2019-03-25T13:18:02.284Z,72.21
2019-03-25T13:20:30.882Z,70.95
2019-03-25T13:23:02.222Z,69.05
2019-03-25T13:25:30.785Z,69.05
2019-03-25T13:27:59.429Z,68.54
2019-03-25T13:30:28.114Z,69.11
2019-03-25T13:32:56.736Z,70.35
2019-03-25T13:35:25.606Z,70.92
2019-03-25T13:37:54.232Z,69.99
2019-03-25T13:40:22.782Z,70.15
2019-03-25T13:42:51.495Z,70.94
2019-03-25T13:45:20.099Z,69.54
2019-03-25T13:47:48.741Z,67.96
2019-03-25T13:50:20.095Z,64.41
2019-03-25T13:52:48.226Z,55.85
2019-03-25T13:55:16.850Z,44.03
2019-03-25T13:57:47.813Z,36.43
2019-03-25T14:00:32.550Z,29.27
2019-03-25T14:03:01.233Z,26.45
2019-03-25T14:05:29.810Z,22.35
2019-03-25T14:07:58.408Z,21.76
2019-03-25T14:10:27.069Z,21.78
2019-03-25T14:12:55.819Z,24.92
2019-03-25T14:15:24.451Z,29.71
2019-03-25T14:17:53.031Z,31.45
2019-03-25T14:20:23.962Z,34.08
2019-03-25T14:22:52.551Z,40.08
2019-03-25T14:25:20.881Z,45.79
2019-03-25T14:27:50.775Z,48.53
2019-03-25T14:30:19.621Z,52.87
2019-03-25T14:32:48.917Z,54.44
2019-03-25T14:35:17.466Z,55.58
2019-03-25T14:37:46.122Z,56.75
2019-03-25T14:40:14.986Z,59.50
2019-03-25T14:42:43.530Z,61.70
2019-03-25T14:45:12.356Z,63.17
2019-03-25T14:47:40.941Z,65.02
2019-03-25T14:50:10.082Z,62.94
2019-03-25T14:52:38.674Z,63.18
2019-03-25T14:55:07.615Z,62.57
2019-03-25T14:57:36.198Z,63.94
2019-03-25T15:00:06.024Z,62.05
2019-03-25T15:02:34.615Z,60.50
2019-03-25T15:05:03.551Z,60.53
2019-03-25T15:07:32.106Z,61.75
2019-03-25T15:10:00.662Z,62.34
2019-03-25T15:12:29.248Z,62.78
2019-03-25T15:14:57.791Z,62.82
2019-03-25T15:17:26.390Z,63.41
2019-03-25T15:19:55.015Z,65.38
2019-03-25T15:22:23.668Z,67.41
2019-03-25T15:24:52.238Z,66.82
2019-03-25T15:27:20.891Z,65.78
2019-03-25T15:29:49.513Z,64.95
2019-03-25T15:32:18.758Z,64.28
2019-03-25T15:34:47.439Z,64.96
2019-03-25T15:37:16.001Z,64.16
2019-03-25T15:39:47.006Z,64.42
2019-03-25T15:42:15.055Z,65.49
2019-03-25T15:44:43.631Z,66.29
2019-03-25T15:47:12.250Z,66.27
2019-03-25T15:49:40.925Z,67.63
2019-03-25T15:52:09.604Z,69.92
2019-03-25T15:54:38.192Z,71.85
2019-03-25T15:57:06.739Z,72.74
2019-03-25T15:59:35.355Z,72.55
2019-03-25T16:02:03.921Z,73.96
2019-03-25T16:04:32.601Z,75.25
2019-03-25T16:07:01.134Z,76.17
2019-03-25T16:09:29.702Z,76.53
2019-03-25T16:11:58.257Z,76.97
2019-03-25T16:14:26.845Z,77.32
2019-03-25T16:16:55.397Z,77.62
2019-03-25T16:19:23.970Z,77.12
2019-03-25T16:21:52.549Z,76.46
2019-03-25T16:24:21.122Z,76.85
2019-03-25T16:26:49.681Z,76.76
2019-03-25T16:29:18.273Z,76.17
2019-03-25T16:31:46.811Z,75.96
2019-03-25T16:34:15.403Z,75.16
2019-03-25T16:36:43.964Z,74.41
2019-03-25T16:39:12.830Z,74.84
2019-03-25T16:41:41.441Z,74.66
2019-03-25T16:44:10.058Z,75.17
2019-03-25T16:46:38.678Z,75.18
2019-03-25T16:49:07.246Z,74.96
2019-03-25T16:51:35.808Z,73.59
2019-03-25T16:54:04.349Z,72.46
2019-03-25T16:56:32.937Z,72.67
2019-03-25T16:59:01.566Z,73.15
2019-03-25T17:01:30.145Z,73.69
2019-03-25T17:03:58.712Z,74.12
2019-03-25T17:06:28.471Z,73.99
2019-03-25T17:08:57.323Z,74.51
2019-03-25T17:11:25.935Z,74.96
2019-03-25T17:13:54.550Z,74.54
2019-03-25T17:16:23.139Z,75.26
2019-03-25T17:18:51.750Z,75.30
2019-03-25T17:21:20.349Z,75.37
2019-03-25T17:23:48.957Z,75.89
2019-03-25T17:26:17.545Z,76.17
2019-03-25T17:28:46.192Z,76.84
2019-03-25T17:31:20.881Z,75.60
2019-03-25T17:33:45.234Z,76.10
2019-03-25T17:36:14.987Z,76.94
2019-03-25T17:38:43.848Z,77.45
2019-03-25T17:41:12.426Z,78.25
2019-03-25T17:43:41.058Z,78.29
2019-03-25T17:46:09.652Z,78.44
2019-03-25T17:48:38.249Z,78.67
2019-03-25T17:51:06.845Z,78.87
2019-03-25T17:53:35.469Z,79.03
2019-03-25T17:56:04.193Z,79.38
2019-03-25T17:58:32.749Z,80.30
2019-03-25T18:01:31.492Z,81.11
2019-03-25T18:03:51.319Z,81.44
2019-03-25T18:06:19.901Z,82.22
2019-03-25T18:08:48.499Z,81.98
2019-03-25T18:11:17.067Z,81.44
2019-03-25T18:13:45.679Z,80.65
2019-03-25T18:16:14.274Z,80.33
2019-03-25T18:18:42.864Z,80.66
2019-03-25T18:21:11.423Z,80.33
2019-03-25T18:23:40.037Z,80.26
2019-03-25T18:26:08.725Z,80.67
2019-03-25T18:28:37.309Z,79.73
2019-03-25T18:31:05.924Z,79.30
2019-03-25T18:33:34.535Z,79.58
2019-03-25T18:36:03.365Z,79.49
2019-03-25T18:38:31.970Z,79.28
2019-03-25T18:41:00.575Z,77.50
2019-03-25T18:43:29.213Z,77.29
2019-03-25T18:45:57.853Z,76.98
2019-03-25T18:48:26.787Z,77.55
2019-03-25T18:50:55.386Z,77.97
2019-03-25T18:53:23.969Z,76.91
2019-03-25T18:55:52.586Z,76.34
2019-03-25T18:58:21.102Z,76.50
2019-03-25T19:00:50.036Z,76.99
2019-03-25T19:03:18.721Z,77.48
2019-03-25T19:05:47.382Z,77.94
2019-03-25T19:08:16.596Z,77.82
2019-03-25T19:10:45.181Z,77.66
2019-03-25T19:13:13.823Z,77.75
2019-03-25T19:15:42.511Z,78.37
2019-03-25T19:18:11.124Z,77.21
2019-03-25T19:20:39.708Z,76.20
2019-03-25T19:23:08.276Z,75.75
2019-03-25T19:25:36.869Z,75.80
2019-03-25T19:28:05.456Z,75.62
2019-03-25T19:30:34.109Z,76.44
2019-03-25T19:33:02.665Z,78.20
2019-03-25T19:35:31.243Z,78.93
2019-03-25T19:37:59.839Z,79.03
2019-03-25T19:40:28.478Z,79.05
2019-03-25T19:42:57.090Z,78.41
2019-03-25T19:45:25.793Z,78.04
2019-03-25T19:47:54.386Z,77.29
2019-03-25T19:50:23.027Z,77.55
2019-03-25T19:52:51.673Z,77.42
2019-03-25T19:55:20.318Z,77.52
2019-03-25T19:57:48.964Z,77.37
2019-03-25T20:00:32.384Z,76.64
2019-03-25T20:03:01.040Z,77.16
2019-03-25T20:05:29.743Z,77.51
2019-03-25T20:07:58.365Z,77.21
2019-03-25T20:10:32.311Z,77.29
2019-03-25T20:13:01.114Z,77.29
2019-03-25T20:15:32.632Z,77.96
2019-03-25T20:18:00.406Z,78.21
2019-03-25T20:20:29.059Z,78.02
2019-03-25T20:22:57.697Z,78.31
2019-03-25T20:25:26.268Z,77.95
2019-03-25T20:27:54.887Z,77.67
2019-03-25T20:30:23.654Z,77.54
2019-03-25T20:32:52.371Z,77.90
2019-03-25T20:35:20.974Z,78.69
2019-03-25T20:37:49.584Z,78.62
2019-03-25T20:40:18.181Z,78.73
2019-03-25T20:42:46.883Z,79.36
2019-03-25T20:45:18.226Z,78.95
2019-03-25T20:47:46.398Z,78.63
2019-03-25T20:50:14.990Z,78.22
2019-03-25T20:52:43.570Z,77.70
2019-03-25T20:55:12.190Z,77.98
2019-03-25T20:57:40.795Z,78.71
2019-03-25T21:00:12.748Z,79.38
2019-03-25T21:02:45.322Z,78.56
2019-03-25T21:05:12.265Z,78.10
2019-03-25T21:07:41.004Z,78.07
2019-03-25T21:10:09.772Z,78.02
2019-03-25T21:12:38.703Z,78.25
2019-03-25T21:15:08.356Z,78.03
2019-03-25T21:17:36.953Z,77.99
2019-03-25T21:20:06.392Z,78.45
2019-03-25T21:22:34.984Z,78.55
2019-03-25T21:25:04.809Z,78.93
2019-03-25T21:27:33.450Z,78.77
2019-03-25T21:30:02.220Z,79.55
2019-03-25T21:32:30.992Z,79.72
2019-03-25T21:34:59.559Z,79.90
2019-03-25T21:37:28.205Z,79.68
2019-03-25T21:39:56.794Z,79.72
2019-03-25T21:42:25.391Z,79.48
2019-03-25T21:44:53.972Z,79.91
2019-03-25T21:47:22.637Z,79.52
2019-03-25T21:49:51.152Z,78.71
2019-03-25T21:52:19.757Z,78.48
2019-03-25T21:54:48.382Z,78.64
2019-03-25T21:57:17.037Z,78.69
2019-03-25T21:59:45.859Z,78.65
2019-03-25T22:02:14.424Z,78.26
2019-03-25T22:04:43.040Z,78.41
2019-03-25T22:07:11.645Z,78.40
2019-03-25T22:09:40.201Z,79.08
2019-03-25T22:12:08.816Z,79.18
2019-03-25T22:14:37.401Z,79.21
2019-03-25T22:17:05.979Z,79.89
2019-03-25T22:19:34.555Z,79.82
2019-03-25T22:22:03.128Z,79.96
2019-03-25T22:24:31.737Z,80.77
2019-03-25T22:27:00.321Z,80.96
2019-03-25T22:29:28.924Z,80.65
2019-03-25T22:31:57.477Z,80.68
2019-03-25T22:34:26.102Z,80.08
2019-03-25T22:36:54.678Z,80.17
2019-03-25T22:39:23.283Z,80.46
2019-03-25T22:41:51.949Z,81.08
2019-03-25T22:44:20.531Z,81.39
2019-03-25T22:46:49.075Z,81.57
2019-03-25T22:49:17.670Z,80.85
2019-03-25T22:51:46.233Z,80.47
2019-03-25T22:54:14.821Z,80.15
2019-03-25T22:56:43.353Z,79.96
2019-03-25T22:59:11.937Z,80.06
2019-03-25T23:01:40.500Z,80.11
2019-03-25T23:04:09.081Z,79.32
2019-03-25T23:06:37.712Z,79.27
2019-03-25T23:09:07.564Z,78.91
2019-03-25T23:11:36.186Z,78.86
2019-03-25T23:14:04.770Z,78.39
2019-03-25T23:16:33.376Z,78.51
2019-03-25T23:19:01.956Z,78.89
2019-03-25T23:21:30.538Z,79.27
2019-03-25T23:23:59.124Z,78.97
2019-03-25T23:26:27.712Z,79.07
2019-03-25T23:28:56.279Z,78.32
2019-03-25T23:31:24.884Z,78.53
2019-03-25T23:33:53.438Z,79.03
2019-03-25T23:36:22.003Z,79.36
2019-03-25T23:38:50.559Z,80.32
2019-03-25T23:41:19.124Z,80.80
2019-03-25T23:43:47.696Z,80.42
2019-03-25T23:46:16.320Z,80.70
2019-03-25T23:48:44.847Z,80.67
2019-03-25T23:51:13.515Z,81.10
2019-03-25T23:53:42.046Z,81.49
2019-03-25T23:56:10.635Z,81.63
2019-03-25T23:58:39.192Z,81.96
